Main page
METAR-TAF:

METAR-TAF

Airports :

Beirut Air Base

Beirut, Lebanon

latitude: 33-49N, longitude: 035-29E, elevation: 29 m

Current weather observation

The report was made 46 minutes ago, at 23:00 UTC
Wind 5 kt from the East/Southeast
Temperature 18°C
Humidity 83%
Pressure 1017 hPa
Visibility: 5000 m
Scattered clouds at a height of 2600 ft
mist,

METAR: OLBA 122300Z 11005KT 5000 BR SCT026 18/15 Q1017 NOSIG

Time: 02:46 (23:46 UTC)

Forecast

The report was made 1 hour and 46 minutes ago, at 22:00 UTC
Forecast valid from 13 at 00 UTC to 14 at 06 UTC
Wind 8 kt from the North/Northeast
Visibility: 7000 m
Scattered clouds at a height of 2600 ft
Becoming
from 13 at 12 UTC to 13 at 15 UTC
Wind 8 kt from the Northwest
Broken clouds at a height of 2600 ft
Temporary
from 13 at 12 UTC to 13 at 24 UTC
Visibility: 5000 m
mist
Becoming
from 14 at 00 UTC to 14 at 03 UTC
Wind 2 kt from variable directions

TAF: OLBA 122200Z 1300/1406 02008KT 7000 SCT026 BECMG 1312/1315 32008KT BKN026 TEMPO 1312/1324 5000 BR BECMG 1400/1403 VRB02KT

Weather observations and forecasts of more than 4000 airports (METAR and TAF reports).

The available stations are represented by yellow and red dots on the map.

Hover mouse over dot to see the name of the station.

Then click to see weather observations and forecasts.

To change the map : click on the green buttons with a black cross to zoom in, on the green button with a dash to zoom out, or on the green arrows for adjacent maps.


METAR-TAF: